sensor_id;sensor_type;location;lat;lon;timestamp;P1;P2;P0
24012;PMS7003;12220;50.194;18.948;2024-03-23T00:54:31;15;14;8
24012;PMS7003;12220;50.194;18.948;2024-03-23T00:56:32;21;17;12
24012;PMS7003;12220;50.194;18.948;2024-03-23T00:58:34;19;18;13
24012;PMS7003;12220;50.194;18.948;2024-03-23T01:00:35;17;15;11
24012;PMS7003;12220;50.194;18.948;2024-03-23T01:02:46;17;16;11
24012;PMS7003;12220;50.194;18.948;2024-03-23T01:04:47;15;13;10
24012;PMS7003;12220;50.194;18.948;2024-03-23T01:06:49;23;22;13
24012;PMS7003;12220;50.194;18.948;2024-03-23T01:08:50;20;17;11
24012;PMS7003;12220;50.194;18.948;2024-03-23T01:11:01;19;13;10
24012;PMS7003;12220;50.194;18.948;2024-03-23T01:13:03;16;14;12
24012;PMS7003;12220;50.194;18.948;2024-03-23T01:15:05;17;15;11
24012;PMS7003;12220;50.194;18.948;2024-03-23T01:17:06;18;14;9
24012;PMS7003;12220;50.194;18.948;2024-03-23T01:19:16;12;12;9
24012;PMS7003;12220;50.194;18.948;2024-03-23T01:21:18;20;16;10
24012;PMS7003;12220;50.194;18.948;2024-03-23T01:23:19;18;12;9
24012;PMS7003;12220;50.194;18.948;2024-03-23T01:25:20;13;12;9
24012;PMS7003;12220;50.194;18.948;2024-03-23T01:27:31;18;14;10
24012;PMS7003;12220;50.194;18.948;2024-03-23T01:29:34;18;16;11
24012;PMS7003;12220;50.194;18.948;2024-03-23T01:31:35;18;15;11
24012;PMS7003;12220;50.194;18.948;2024-03-23T01:33:37;20;17;12
24012;PMS7003;12220;50.194;18.948;2024-03-23T01:35:46;15;15;12
24012;PMS7003;12220;50.194;18.948;2024-03-23T01:37:47;21;16;11
24012;PMS7003;12220;50.194;18.948;2024-03-23T01:39:49;13;13;8
24012;PMS7003;12220;50.194;18.948;2024-03-23T01:41:50;17;17;14
24012;PMS7003;12220;50.194;18.948;2024-03-23T01:44:03;21;19;14
24012;PMS7003;12220;50.194;18.948;2024-03-23T01:46:08;18;16;11
24012;PMS7003;12220;50.194;18.948;2024-03-23T01:48:09;20;16;12
24012;PMS7003;12220;50.194;18.948;2024-03-23T01:50:14;21;18;14
24012;PMS7003;12220;50.194;18.948;2024-03-23T01:52:16;21;19;13
24012;PMS7003;12220;50.194;18.948;2024-03-23T01:54:18;23;20;13
24012;PMS7003;12220;50.194;18.948;2024-03-23T01:56:20;21;18;13
24012;PMS7003;12220;50.194;18.948;2024-03-23T01:58:21;26;19;13
24012;PMS7003;12220;50.194;18.948;2024-03-23T02:00:31;17;17;13
24012;PMS7003;12220;50.194;18.948;2024-03-23T02:02:32;14;13;10
24012;PMS7003;12220;50.194;18.948;2024-03-23T02:04:33;19;15;11
24012;PMS7003;12220;50.194;18.948;2024-03-23T02:06:35;20;15;11
24012;PMS7003;12220;50.194;18.948;2024-03-23T02:08:46;18;18;11
24012;PMS7003;12220;50.194;18.948;2024-03-23T02:10:48;17;13;10
24012;PMS7003;12220;50.194;18.948;2024-03-23T02:12:52;22;18;11
24012;PMS7003;12220;50.194;18.948;2024-03-23T02:14:54;14;14;11
24012;PMS7003;12220;50.194;18.948;2024-03-23T02:17:01;20;19;14
24012;PMS7003;12220;50.194;18.948;2024-03-23T02:19:02;28;22;14
24012;PMS7003;12220;50.194;18.948;2024-03-23T02:21:04;22;19;14
24012;PMS7003;12220;50.194;18.948;2024-03-23T02:23:05;22;20;13
24012;PMS7003;12220;50.194;18.948;2024-03-23T02:25:16;18;17;14
24012;PMS7003;12220;50.194;18.948;2024-03-23T02:27:17;23;20;13
24012;PMS7003;12220;50.194;18.948;2024-03-23T02:29:18;18;16;12
24012;PMS7003;12220;50.194;18.948;2024-03-23T02:31:21;21;16;12
24012;PMS7003;12220;50.194;18.948;2024-03-23T02:33:31;15;13;10
24012;PMS7003;12220;50.194;18.948;2024-03-23T02:35:34;22;20;14
24012;PMS7003;12220;50.194;18.948;2024-03-23T02:37:35;22;18;14
24012;PMS7003;12220;50.194;18.948;2024-03-23T02:39:37;25;22;15
24012;PMS7003;12220;50.194;18.948;2024-03-23T02:41:46;23;21;13
24012;PMS7003;12220;50.194;18.948;2024-03-23T02:43:49;24;20;12
24012;PMS7003;12220;50.194;18.948;2024-03-23T02:45:51;19;18;13
24012;PMS7003;12220;50.194;18.948;2024-03-23T02:47:55;18;17;13
24012;PMS7003;12220;50.194;18.948;2024-03-23T02:50:01;21;18;13
24012;PMS7003;12220;50.194;18.948;2024-03-23T02:52:02;20;17;13
24012;PMS7003;12220;50.194;18.948;2024-03-23T02:54:03;19;18;15
24012;PMS7003;12220;50.194;18.948;2024-03-23T02:56:05;22;21;13
24012;PMS7003;12220;50.194;18.948;2024-03-23T02:58:16;20;19;13
24012;PMS7003;12220;50.194;18.948;2024-03-23T03:00:17;21;18;15
24012;PMS7003;12220;50.194;18.948;2024-03-23T03:02:18;21;19;12
24012;PMS7003;12220;50.194;18.948;2024-03-23T03:04:20;21;20;11
24012;PMS7003;12220;50.194;18.948;2024-03-23T03:06:31;21;18;13
24012;PMS7003;12220;50.194;18.948;2024-03-23T03:08:32;20;18;13
24012;PMS7003;12220;50.194;18.948;2024-03-23T03:10:33;19;19;14
24012;PMS7003;12220;50.194;18.948;2024-03-23T03:12:37;20;18;11
24012;PMS7003;12220;50.194;18.948;2024-03-23T03:14:45;18;16;13
24012;PMS7003;12220;50.194;18.948;2024-03-23T03:16:47;27;19;13
24012;PMS7003;12220;50.194;18.948;2024-03-23T03:18:48;18;16;9
24012;PMS7003;12220;50.194;18.948;2024-03-23T03:20:49;23;21;12
24012;PMS7003;12220;50.194;18.948;2024-03-23T03:23:00;22;15;11
24012;PMS7003;12220;50.194;18.948;2024-03-23T03:25:02;21;17;12
24012;PMS7003;12220;50.194;18.948;2024-03-23T03:27:03;19;15;11
24012;PMS7003;12220;50.194;18.948;2024-03-23T03:29:07;23;19;13
24012;PMS7003;12220;50.194;18.948;2024-03-23T03:31:15;20;20;12
24012;PMS7003;12220;50.194;18.948;2024-03-23T03:33:17;19;19;11
24012;PMS7003;12220;50.194;18.948;2024-03-23T03:35:18;24;19;13
24012;PMS7003;12220;50.194;18.948;2024-03-23T03:37:19;16;15;10
24012;PMS7003;12220;50.194;18.948;2024-03-23T03:39:30;18;12;10
24012;PMS7003;12220;50.194;18.948;2024-03-23T03:41:32;20;15;11
24012;PMS7003;12220;50.194;18.948;2024-03-23T03:43:33;18;18;11
24012;PMS7003;12220;50.194;18.948;2024-03-23T03:45:34;20;18;11
24012;PMS7003;12220;50.194;18.948;2024-03-23T03:47:45;22;21;12
24012;PMS7003;12220;50.194;18.948;2024-03-23T03:49:47;23;21;15
24012;PMS7003;12220;50.194;18.948;2024-03-23T03:51:48;23;18;13
24012;PMS7003;12220;50.194;18.948;2024-03-23T03:53:49;26;18;12
24012;PMS7003;12220;50.194;18.948;2024-03-23T03:56:01;28;28;18
24012;PMS7003;12220;50.194;18.948;2024-03-23T03:58:02;37;24;17
24012;PMS7003;12220;50.194;18.948;2024-03-23T04:00:05;29;26;16
24012;PMS7003;12220;50.194;18.948;2024-03-23T04:02:08;23;21;14
24012;PMS7003;12220;50.194;18.948;2024-03-23T04:04:15;22;21;13
24012;PMS7003;12220;50.194;18.948;2024-03-23T04:06:20;25;19;12
24012;PMS7003;12220;50.194;18.948;2024-03-23T04:08:21;29;17;12
24012;PMS7003;12220;50.194;18.948;2024-03-23T04:10:23;21;17;13
24012;PMS7003;12220;50.194;18.948;2024-03-23T04:12:30;20;19;13
24012;PMS7003;12220;50.194;18.948;2024-03-23T04:14:31;21;20;13
24012;PMS7003;12220;50.194;18.948;2024-03-23T04:16:35;26;18;13
24012;PMS7003;12220;50.194;18.948;2024-03-23T04:18:36;23;20;16
24012;PMS7003;12220;50.194;18.948;2024-03-23T04:20:45;21;17;12
24012;PMS7003;12220;50.194;18.948;2024-03-23T04:22:47;24;23;14
24012;PMS7003;12220;50.194;18.948;2024-03-23T04:24:48;23;19;14
24012;PMS7003;12220;50.194;18.948;2024-03-23T04:26:52;18;15;11
24012;PMS7003;12220;50.194;18.948;2024-03-23T04:29:00;19;15;11
24012;PMS7003;12220;50.194;18.948;2024-03-23T04:31:04;21;21;13
24012;PMS7003;12220;50.194;18.948;2024-03-23T04:33:06;17;17;12
24012;PMS7003;12220;50.194;18.948;2024-03-23T04:35:07;25;22;14
24012;PMS7003;12220;50.194;18.948;2024-03-23T04:37:15;14;14;9
24012;PMS7003;12220;50.194;18.948;2024-03-23T04:39:17;18;17;12
24012;PMS7003;12220;50.194;18.948;2024-03-23T04:41:20;15;12;9
24012;PMS7003;12220;50.194;18.948;2024-03-23T04:43:23;22;20;12
24012;PMS7003;12220;50.194;18.948;2024-03-23T04:45:30;20;18;11
24012;PMS7003;12220;50.194;18.948;2024-03-23T04:47:34;13;13;10
24012;PMS7003;12220;50.194;18.948;2024-03-23T04:49:36;19;18;13
24012;PMS7003;12220;50.194;18.948;2024-03-23T04:51:37;23;17;13
24012;PMS7003;12220;50.194;18.948;2024-03-23T04:53:45;21;16;12
24012;PMS7003;12220;50.194;18.948;2024-03-23T04:55:46;12;11;9
24012;PMS7003;12220;50.194;18.948;2024-03-23T04:57:47;14;13;9
24012;PMS7003;12220;50.194;18.948;2024-03-23T04:59:49;21;19;10
24012;PMS7003;12220;50.194;18.948;2024-03-23T05:02:00;25;21;13
24012;PMS7003;12220;50.194;18.948;2024-03-23T05:04:01;22;18;12
24012;PMS7003;12220;50.194;18.948;2024-03-23T05:06:06;16;15;11
24012;PMS7003;12220;50.194;18.948;2024-03-23T05:08:07;16;14;11
24012;PMS7003;12220;50.194;18.948;2024-03-23T05:10:15;18;15;10
24012;PMS7003;12220;50.194;18.948;2024-03-23T05:12:17;21;17;12
24012;PMS7003;12220;50.194;18.948;2024-03-23T05:14:18;16;14;11
24012;PMS7003;12220;50.194;18.948;2024-03-23T05:16:19;18;14;10
24012;PMS7003;12220;50.194;18.948;2024-03-23T05:18:30;18;15;11
24012;PMS7003;12220;50.194;18.948;2024-03-23T05:20:32;17;17;11
24012;PMS7003;12220;50.194;18.948;2024-03-23T05:22:34;13;13;9
24012;PMS7003;12220;50.194;18.948;2024-03-23T05:24:37;13;12;9
24012;PMS7003;12220;50.194;18.948;2024-03-23T05:26:45;14;13;9
24012;PMS7003;12220;50.194;18.948;2024-03-23T05:28:46;11;10;7
24012;PMS7003;12220;50.194;18.948;2024-03-23T05:32:55;19;13;10
24012;PMS7003;12220;50.194;18.948;2024-03-23T05:35:00;14;12;8
24012;PMS7003;12220;50.194;18.948;2024-03-23T05:37:01;14;12;7
24012;PMS7003;12220;50.194;18.948;2024-03-23T05:39:03;18;15;9
24012;PMS7003;12220;50.194;18.948;2024-03-23T05:41:04;11;11;9
24012;PMS7003;12220;50.194;18.948;2024-03-23T05:43:15;15;13;8
24012;PMS7003;12220;50.194;18.948;2024-03-23T05:45:16;15;12;9
24012;PMS7003;12220;50.194;18.948;2024-03-23T05:47:19;14;13;9
24012;PMS7003;12220;50.194;18.948;2024-03-23T05:49:20;18;15;12
24012;PMS7003;12220;50.194;18.948;2024-03-23T05:51:30;13;12;8
24012;PMS7003;12220;50.194;18.948;2024-03-23T05:53:31;20;16;10
24012;PMS7003;12220;50.194;18.948;2024-03-23T05:55:36;16;14;11
24012;PMS7003;12220;50.194;18.948;2024-03-23T05:57:37;17;14;8
24012;PMS7003;12220;50.194;18.948;2024-03-23T05:59:45;17;16;13
24012;PMS7003;12220;50.194;18.948;2024-03-23T06:01:48;17;15;10
24012;PMS7003;12220;50.194;18.948;2024-03-23T06:03:49;21;15;11
24012;PMS7003;12220;50.194;18.948;2024-03-23T06:05:51;13;13;10
24012;PMS7003;12220;50.194;18.948;2024-03-23T06:08:00;13;13;8
24012;PMS7003;12220;50.194;18.948;2024-03-23T06:10:01;15;15;10
24012;PMS7003;12220;50.194;18.948;2024-03-23T06:12:02;14;13;10
24012;PMS7003;12220;50.194;18.948;2024-03-23T06:14:04;19;15;10
24012;PMS7003;12220;50.194;18.948;2024-03-23T06:16:14;15;15;12
24012;PMS7003;12220;50.194;18.948;2024-03-23T06:18:16;18;17;11
24012;PMS7003;12220;50.194;18.948;2024-03-23T06:20:17;18;14;11
24012;PMS7003;12220;50.194;18.948;2024-03-23T06:22:18;16;14;10
24012;PMS7003;12220;50.194;18.948;2024-03-23T06:24:29;20;18;15
24012;PMS7003;12220;50.194;18.948;2024-03-23T06:26:31;20;18;12
24012;PMS7003;12220;50.194;18.948;2024-03-23T06:28:32;24;20;13
24012;PMS7003;12220;50.194;18.948;2024-03-23T06:30:33;25;20;14
24012;PMS7003;12220;50.194;18.948;2024-03-23T06:32:44;28;27;18
24012;PMS7003;12220;50.194;18.948;2024-03-23T06:34:46;24;21;16
24012;PMS7003;12220;50.194;18.948;2024-03-23T06:36:47;23;23;14
24012;PMS7003;12220;50.194;18.948;2024-03-23T06:38:48;30;25;18
24012;PMS7003;12220;50.194;18.948;2024-03-23T06:41:02;34;27;19
24012;PMS7003;12220;50.194;18.948;2024-03-23T06:43:03;26;25;16
24012;PMS7003;12220;50.194;18.948;2024-03-23T06:45:06;24;24;19
24012;PMS7003;12220;50.194;18.948;2024-03-23T06:47:07;37;31;19
24012;PMS7003;12220;50.194;18.948;2024-03-23T06:49:16;32;26;19
24012;PMS7003;12220;50.194;18.948;2024-03-23T06:51:17;34;30;20
24012;PMS7003;12220;50.194;18.948;2024-03-23T06:53:19;24;23;17
24012;PMS7003;12220;50.194;18.948;2024-03-23T06:55:21;25;24;17
24012;PMS7003;12220;50.194;18.948;2024-03-23T06:57:31;30;26;18
24012;PMS7003;12220;50.194;18.948;2024-03-23T06:59:32;24;21;15
24012;PMS7003;12220;50.194;18.948;2024-03-23T07:01:34;23;20;15
24012;PMS7003;12220;50.194;18.948;2024-03-23T07:03:35;31;25;18
24012;PMS7003;12220;50.194;18.948;2024-03-23T07:05:46;28;23;16
24012;PMS7003;12220;50.194;18.948;2024-03-23T07:07:47;26;23;15
24012;PMS7003;12220;50.194;18.948;2024-03-23T07:09:48;33;27;17
24012;PMS7003;12220;50.194;18.948;2024-03-23T07:11:50;35;27;17
24012;PMS7003;12220;50.194;18.948;2024-03-23T07:14:01;27;23;16
24012;PMS7003;12220;50.194;18.948;2024-03-23T07:16:03;27;24;17
24012;PMS7003;12220;50.194;18.948;2024-03-23T07:18:05;30;28;19
24012;PMS7003;12220;50.194;18.948;2024-03-23T07:20:08;29;26;15
24012;PMS7003;12220;50.194;18.948;2024-03-23T07:22:16;24;21;13
24012;PMS7003;12220;50.194;18.948;2024-03-23T07:24:17;20;18;12
24012;PMS7003;12220;50.194;18.948;2024-03-23T07:26:23;28;22;15
24012;PMS7003;12220;50.194;18.948;2024-03-23T07:28:24;28;27;19
24012;PMS7003;12220;50.194;18.948;2024-03-23T07:30:31;26;22;17
24012;PMS7003;12220;50.194;18.948;2024-03-23T07:32:32;27;26;19
24012;PMS7003;12220;50.194;18.948;2024-03-23T07:34:33;23;22;17
24012;PMS7003;12220;50.194;18.948;2024-03-23T07:36:35;30;24;17
24012;PMS7003;12220;50.194;18.948;2024-03-23T07:38:46;23;20;16
24012;PMS7003;12220;50.194;18.948;2024-03-23T07:40:47;23;22;15
24012;PMS7003;12220;50.194;18.948;2024-03-23T07:42:56;26;20;17
24012;PMS7003;12220;50.194;18.948;2024-03-23T07:44:58;18;16;13
24012;PMS7003;12220;50.194;18.948;2024-03-23T07:47:04;19;15;12
24012;PMS7003;12220;50.194;18.948;2024-03-23T07:49:05;22;20;12
24012;PMS7003;12220;50.194;18.948;2024-03-23T07:51:07;25;20;15
24012;PMS7003;12220;50.194;18.948;2024-03-23T07:53:10;22;21;15
24012;PMS7003;12220;50.194;18.948;2024-03-23T07:55:19;23;22;15
24012;PMS7003;12220;50.194;18.948;2024-03-23T07:57:20;31;25;19
24012;PMS7003;12220;50.194;18.948;2024-03-23T07:59:22;28;26;16
24012;PMS7003;12220;50.194;18.948;2024-03-23T08:01:23;26;23;18
24012;PMS7003;12220;50.194;18.948;2024-03-23T08:03:37;29;28;18
24012;PMS7003;12220;50.194;18.948;2024-03-23T08:05:39;33;29;17
24012;PMS7003;12220;50.194;18.948;2024-03-23T08:07:40;41;36;21
24012;PMS7003;12220;50.194;18.948;2024-03-23T08:09:41;29;26;20
24012;PMS7003;12220;50.194;18.948;2024-03-23T08:11:49;26;23;17
24012;PMS7003;12220;50.194;18.948;2024-03-23T08:13:50;24;20;16
24012;PMS7003;12220;50.194;18.948;2024-03-23T08:15:51;28;24;15
24012;PMS7003;12220;50.194;18.948;2024-03-23T08:17:53;30;28;17
24012;PMS7003;12220;50.194;18.948;2024-03-23T08:20:04;27;26;19
24012;PMS7003;12220;50.194;18.948;2024-03-23T08:22:06;23;22;15
24012;PMS7003;12220;50.194;18.948;2024-03-23T08:24:07;25;22;16
24012;PMS7003;12220;50.194;18.948;2024-03-23T08:26:11;23;23;16
24012;PMS7003;12220;50.194;18.948;2024-03-23T08:28:18;20;20;14
24012;PMS7003;12220;50.194;18.948;2024-03-23T08:30:20;22;21;15
24012;PMS7003;12220;50.194;18.948;2024-03-23T08:32:22;20;19;13
24012;PMS7003;12220;50.194;18.948;2024-03-23T08:34:23;19;18;11
24012;PMS7003;12220;50.194;18.948;2024-03-23T08:36:33;15;14;12
24012;PMS7003;12220;50.194;18.948;2024-03-23T08:38:35;19;16;12
24012;PMS7003;12220;50.194;18.948;2024-03-23T08:40:36;22;22;12
24012;PMS7003;12220;50.194;18.948;2024-03-23T08:42:37;21;20;13
24012;PMS7003;12220;50.194;18.948;2024-03-23T08:44:48;16;16;11
24012;PMS7003;12220;50.194;18.948;2024-03-23T08:46:52;21;17;12
24012;PMS7003;12220;50.194;18.948;2024-03-23T08:48:58;17;16;12
24012;PMS7003;12220;50.194;18.948;2024-03-23T08:51:00;13;13;11
24012;PMS7003;12220;50.194;18.948;2024-03-23T08:53:04;18;11;8
24012;PMS7003;12220;50.194;18.948;2024-03-23T08:55:06;13;13;10
24012;PMS7003;12220;50.194;18.948;2024-03-23T08:57:08;12;11;9
24012;PMS7003;12220;50.194;18.948;2024-03-23T08:59:12;15;11;9
24012;PMS7003;12220;50.194;18.948;2024-03-23T09:01:18;12;11;7
24012;PMS7003;12220;50.194;18.948;2024-03-23T09:03:20;14;12;10
24012;PMS7003;12220;50.194;18.948;2024-03-23T09:05:21;19;11;8
24012;PMS7003;12220;50.194;18.948;2024-03-23T09:07:24;14;14;9
24012;PMS7003;12220;50.194;18.948;2024-03-23T09:09:33;16;16;12
24012;PMS7003;12220;50.194;18.948;2024-03-23T09:11:34;16;15;10
24012;PMS7003;12220;50.194;18.948;2024-03-23T09:13:36;18;15;9
24012;PMS7003;12220;50.194;18.948;2024-03-23T09:15:46;13;12;8
24012;PMS7003;12220;50.194;18.948;2024-03-23T09:17:48;15;15;11
24012;PMS7003;12220;50.194;18.948;2024-03-23T09:19:52;15;15;11
24012;PMS7003;12220;50.194;18.948;2024-03-23T09:21:53;13;10;8
24012;PMS7003;12220;50.194;18.948;2024-03-23T09:23:54;11;11;9
24012;PMS7003;12220;50.194;18.948;2024-03-23T09:26:03;6;6;4
24012;PMS7003;12220;50.194;18.948;2024-03-23T09:28:05;10;7;6
24012;PMS7003;12220;50.194;18.948;2024-03-23T09:30:09;13;12;9
24012;PMS7003;12220;50.194;18.948;2024-03-23T09:32:11;14;14;12
24012;PMS7003;12220;50.194;18.948;2024-03-23T09:34:17;10;10;9
24012;PMS7003;12220;50.194;18.948;2024-03-23T09:36:19;11;9;8
24012;PMS7003;12220;50.194;18.948;2024-03-23T09:38:20;12;11;10
24012;PMS7003;12220;50.194;18.948;2024-03-23T09:40:21;13;13;7
24012;PMS7003;12220;50.194;18.948;2024-03-23T09:42:32;12;12;10
24012;PMS7003;12220;50.194;18.948;2024-03-23T09:44:35;12;9;6
24012;PMS7003;12220;50.194;18.948;2024-03-23T09:46:36;8;5;2
24012;PMS7003;12220;50.194;18.948;2024-03-23T09:48:39;11;11;8
24012;PMS7003;12220;50.194;18.948;2024-03-23T09:50:47;15;14;10
24012;PMS7003;12220;50.194;18.948;2024-03-23T09:52:49;12;12;10
24012;PMS7003;12220;50.194;18.948;2024-03-23T09:54:51;13;13;9
24012;PMS7003;12220;50.194;18.948;2024-03-23T09:56:55;14;12;8
24012;PMS7003;12220;50.194;18.948;2024-03-23T09:59:02;10;9;5
24012;PMS7003;12220;50.194;18.948;2024-03-23T10:01:07;14;9;7
24012;PMS7003;12220;50.194;18.948;2024-03-23T10:03:08;12;10;9
24012;PMS7003;12220;50.194;18.948;2024-03-23T10:07:25;15;9;6
24012;PMS7003;12220;50.194;18.948;2024-03-23T10:09:38;9;9;8
24012;PMS7003;12220;50.194;18.948;2024-03-23T10:11:40;12;12;9
24012;PMS7003;12220;50.194;18.948;2024-03-23T10:13:44;14;12;8
24012;PMS7003;12220;50.194;18.948;2024-03-23T10:15:50;6;6;5
24012;PMS7003;12220;50.194;18.948;2024-03-23T10:17:57;12;10;8
24012;PMS7003;12220;50.194;18.948;2024-03-23T10:19:58;9;9;7
24012;PMS7003;12220;50.194;18.948;2024-03-23T10:21:59;9;8;7
24012;PMS7003;12220;50.194;18.948;2024-03-23T10:24:07;13;13;9
24012;PMS7003;12220;50.194;18.948;2024-03-23T10:28:29;11;10;7
24012;PMS7003;12220;50.194;18.948;2024-03-23T10:30:31;9;9;7
24012;PMS7003;12220;50.194;18.948;2024-03-23T10:32:32;13;11;9
24012;PMS7003;12220;50.194;18.948;2024-03-23T10:34:34;9;8;8
24012;PMS7003;12220;50.194;18.948;2024-03-23T10:36:44;9;9;8
24012;PMS7003;12220;50.194;18.948;2024-03-23T10:38:49;14;12;8
24012;PMS7003;12220;50.194;18.948;2024-03-23T10:40:52;12;9;7
24012;PMS7003;12220;50.194;18.948;2024-03-23T10:42:55;10;10;7
24012;PMS7003;12220;50.194;18.948;2024-03-23T10:45:00;15;11;8
24012;PMS7003;12220;50.194;18.948;2024-03-23T10:47:05;14;11;8
24012;PMS7003;12220;50.194;18.948;2024-03-23T10:49:06;7;7;6
24012;PMS7003;12220;50.194;18.948;2024-03-23T10:51:07;11;9;8
24012;PMS7003;12220;50.194;18.948;2024-03-23T10:53:14;13;7;6
24012;PMS7003;12220;50.194;18.948;2024-03-23T10:55:18;11;10;7
24012;PMS7003;12220;50.194;18.948;2024-03-23T10:57:25;11;11;8
24012;PMS7003;12220;50.194;18.948;2024-03-23T10:59:32;10;8;6
24012;PMS7003;12220;50.194;18.948;2024-03-23T11:01:51;9;9;7
24012;PMS7003;12220;50.194;18.948;2024-03-23T11:03:51;10;10;6
24012;PMS7003;12220;50.194;18.948;2024-03-23T11:05:52;8;7;6
24012;PMS7003;12220;50.194;18.948;2024-03-23T11:07:54;7;5;4
24012;PMS7003;12220;50.194;18.948;2024-03-23T11:09:55;6;5;4
24012;PMS7003;12220;50.194;18.948;2024-03-23T11:14:26;12;11;7
24012;PMS7003;12220;50.194;18.948;2024-03-23T11:16:28;9;9;7
24012;PMS7003;12220;50.194;18.948;2024-03-23T11:18:36;6;6;4
24012;PMS7003;12220;50.194;18.948;2024-03-23T11:20:37;9;9;6
24012;PMS7003;12220;50.194;18.948;2024-03-23T11:22:42;10;10;8
24012;PMS7003;12220;50.194;18.948;2024-03-23T11:27:24;8;6;5
24012;PMS7003;12220;50.194;18.948;2024-03-23T11:29:26;4;4;3
24012;PMS7003;12220;50.194;18.948;2024-03-23T11:31:27;8;7;6
24012;PMS7003;12220;50.194;18.948;2024-03-23T11:33:28;6;6;5
24012;PMS7003;12220;50.194;18.948;2024-03-23T11:35:39;9;8;7
24012;PMS7003;12220;50.194;18.948;2024-03-23T11:37:41;7;6;5
24012;PMS7003;12220;50.194;18.948;2024-03-23T11:39:43;11;10;8
24012;PMS7003;12220;50.194;18.948;2024-03-23T11:41:49;7;6;6
24012;PMS7003;12220;50.194;18.948;2024-03-23T11:43:53;7;6;6
24012;PMS7003;12220;50.194;18.948;2024-03-23T11:45:55;5;5;4
24012;PMS7003;12220;50.194;18.948;2024-03-23T11:48:18;6;6;4
24012;PMS7003;12220;50.194;18.948;2024-03-23T11:50:09;5;5;5
24012;PMS7003;12220;50.194;18.948;2024-03-23T11:52:10;8;5;4
24012;PMS7003;12220;50.194;18.948;2024-03-23T11:54:15;6;5;4
24012;PMS7003;12220;50.194;18.948;2024-03-23T11:56:17;5;5;3
24012;PMS7003;12220;50.194;18.948;2024-03-23T11:58:19;8;7;7
24012;PMS7003;12220;50.194;18.948;2024-03-23T12:00:24;8;8;7
24012;PMS7003;12220;50.194;18.948;2024-03-23T12:02:27;7;7;6
24012;PMS7003;12220;50.194;18.948;2024-03-23T12:04:29;8;8;7
24012;PMS7003;12220;50.194;18.948;2024-03-23T12:06:30;5;5;4
24012;PMS7003;12220;50.194;18.948;2024-03-23T12:08:38;6;4;3
24012;PMS7003;12220;50.194;18.948;2024-03-23T12:10:39;7;7;6
24012;PMS7003;12220;50.194;18.948;2024-03-23T12:12:40;3;3;3
24012;PMS7003;12220;50.194;18.948;2024-03-23T12:14:45;5;5;4
24012;PMS7003;12220;50.194;18.948;2024-03-23T12:17:06;5;5;4
24012;PMS7003;12220;50.194;18.948;2024-03-23T12:19:14;10;5;5
24012;PMS7003;12220;50.194;18.948;2024-03-23T12:21:15;4;3;3
24012;PMS7003;12220;50.194;18.948;2024-03-23T12:23:18;7;5;4
24012;PMS7003;12220;50.194;18.948;2024-03-23T12:25:21;4;4;4
24012;PMS7003;12220;50.194;18.948;2024-03-23T12:27:29;6;5;4
24012;PMS7003;12220;50.194;18.948;2024-03-23T12:29:34;3;3;3
24012;PMS7003;12220;50.194;18.948;2024-03-23T12:31:35;5;5;4
24012;PMS7003;12220;50.194;18.948;2024-03-23T12:33:36;2;2;2
24012;PMS7003;12220;50.194;18.948;2024-03-23T12:35:44;5;5;3
24012;PMS7003;12220;50.194;18.948;2024-03-23T12:37:45;3;3;2
24012;PMS7003;12220;50.194;18.948;2024-03-23T12:39:46;6;5;5
24012;PMS7003;12220;50.194;18.948;2024-03-23T12:41:48;3;3;2
24012;PMS7003;12220;50.194;18.948;2024-03-23T12:43:58;3;3;3
24012;PMS7003;12220;50.194;18.948;2024-03-23T12:46:00;4;4;4
24012;PMS7003;12220;50.194;18.948;2024-03-23T12:48:01;16;12;8
24012;PMS7003;12220;50.194;18.948;2024-03-23T12:50:02;9;4;2
24012;PMS7003;12220;50.194;18.948;2024-03-23T12:52:13;6;6;5
24012;PMS7003;12220;50.194;18.948;2024-03-23T12:54:14;5;4;3
24012;PMS7003;12220;50.194;18.948;2024-03-23T12:56:16;4;4;4
24012;PMS7003;12220;50.194;18.948;2024-03-23T12:58:17;4;3;3
24012;PMS7003;12220;50.194;18.948;2024-03-23T13:00:28;3;3;3
24012;PMS7003;12220;50.194;18.948;2024-03-23T13:02:30;4;4;3
24012;PMS7003;12220;50.194;18.948;2024-03-23T13:04:31;8;6;5
24012;PMS7003;12220;50.194;18.948;2024-03-23T13:06:32;7;6;6
24012;PMS7003;12220;50.194;18.948;2024-03-23T13:08:43;16;16;14
24012;PMS7003;12220;50.194;18.948;2024-03-23T13:10:45;19;19;14
24012;PMS7003;12220;50.194;18.948;2024-03-23T13:12:47;13;13;12
24012;PMS7003;12220;50.194;18.948;2024-03-23T13:14:49;6;6;4
24012;PMS7003;12220;50.194;18.948;2024-03-23T13:16:58;4;4;3
24012;PMS7003;12220;50.194;18.948;2024-03-23T13:18:59;6;6;5
24012;PMS7003;12220;50.194;18.948;2024-03-23T13:21:02;36;31;23
24012;PMS7003;12220;50.194;18.948;2024-03-23T13:23:04;37;31;23
24012;PMS7003;12220;50.194;18.948;2024-03-23T13:25:12;32;31;22
24012;PMS7003;12220;50.194;18.948;2024-03-23T13:27:14;27;27;21
24012;PMS7003;12220;50.194;18.948;2024-03-23T13:29:15;17;17;15
24012;PMS7003;12220;50.194;18.948;2024-03-23T13:31:17;22;21;18
24012;PMS7003;12220;50.194;18.948;2024-03-23T13:33:27;18;16;12
24012;PMS7003;12220;50.194;18.948;2024-03-23T13:35:28;15;13;10
24012;PMS7003;12220;50.194;18.948;2024-03-23T13:37:30;15;13;11
24012;PMS7003;12220;50.194;18.948;2024-03-23T13:39:31;47;39;24
24012;PMS7003;12220;50.194;18.948;2024-03-23T13:41:43;19;14;11
24012;PMS7003;12220;50.194;18.948;2024-03-23T13:43:45;9;8;6
24012;PMS7003;12220;50.194;18.948;2024-03-23T13:45:51;8;8;6
24012;PMS7003;12220;50.194;18.948;2024-03-23T13:47:54;3;3;2
24012;PMS7003;12220;50.194;18.948;2024-03-23T13:49:57;1;1;1
24012;PMS7003;12220;50.194;18.948;2024-03-23T13:51:58;1;0;0
24012;PMS7003;12220;50.194;18.948;2024-03-23T13:54:00;4;1;1
24012;PMS7003;12220;50.194;18.948;2024-03-23T13:56:01;0;0;0
24012;PMS7003;12220;50.194;18.948;2024-03-23T13:58:12;0;0;0
24012;PMS7003;12220;50.194;18.948;2024-03-23T14:00:13;0;0;0
24012;PMS7003;12220;50.194;18.948;2024-03-23T14:02:15;0;0;0
24012;PMS7003;12220;50.194;18.948;2024-03-23T14:04:17;3;0;0
24012;PMS7003;12220;50.194;18.948;2024-03-23T14:06:27;0;0;0
24012;PMS7003;12220;50.194;18.948;2024-03-23T14:08:28;0;0;0
24012;PMS7003;12220;50.194;18.948;2024-03-23T14:10:34;0;0;0
24012;PMS7003;12220;50.194;18.948;2024-03-23T14:12:37;0;0;0
24012;PMS7003;12220;50.194;18.948;2024-03-23T14:14:41;0;0;0
24012;PMS7003;12220;50.194;18.948;2024-03-23T14:16:43;0;0;0
24012;PMS7003;12220;50.194;18.948;2024-03-23T14:18:47;0;0;0